Time;durP1;ratioP1;P1;durP2;ratioP2;P2;SDS_P1;SDS_P2;PMS_P1;PMS_P2;Temp;Humidity;BMP_temperature;BMP_pressure;BME280_temperature;BME280_humidity;BME280_pressure;Samples;Min_cycle;Max_cycle;Signal;HPM_P1;HPM_P2
2022/12/21 00:00:16;;;;;;;43.80;17.30;;;;;;;-2.28;97.23;101839.90;108288;1260;68037;-74
2022/12/21 00:03:05;;;;;;;42.30;17.80;;;;;;;-2.27;97.65;101842.45;108273;1260;74676;-73
2022/12/21 00:05:35;;;;;;;45.40;19.70;;;;;;;-2.25;99.58;101839.39;108400;1258;61842;-74
2022/12/21 00:08:04;;;;;;;44.00;18.70;;;;;;;-2.23;98.76;101839.38;108368;1256;61642;-73
2022/12/21 00:10:33;;;;;;;40.30;18.50;;;;;;;-2.19;99.38;101832.90;108264;1260;71475;-73
2022/12/21 00:13:03;;;;;;;37.70;18.20;;;;;;;-2.19;97.96;101832.73;108299;1262;70182;-74
2022/12/21 00:15:32;;;;;;;36.80;17.90;;;;;;;-2.21;96.49;101835.96;108127;1261;69672;-78
2022/12/21 00:18:01;;;;;;;35.00;16.20;;;;;;;-2.23;94.53;101832.73;108146;1257;73234;-73
2022/12/21 00:20:30;;;;;;;42.10;17.70;;;;;;;-2.24;95.49;101829.84;108217;1263;61579;-77
2022/12/21 00:22:59;;;;;;;41.70;18.20;;;;;;;-2.33;94.41;101821.65;108267;1252;59994;-79
2022/12/21 00:25:28;;;;;;;46.40;18.30;;;;;;;-2.31;94.61;101830.02;108233;1268;70931;-78
2022/12/21 00:27:57;;;;;;;43.00;18.30;;;;;;;-2.34;94.51;101827.10;108301;1268;70211;-79
2022/12/21 00:30:27;;;;;;;41.50;19.10;;;;;;;-2.36;95.99;101825.25;108177;1260;68716;-77
2022/12/21 00:32:58;;;;;;;41.30;17.70;;;;;;;-2.39;95.37;101824.56;108039;1262;71842;-76
2022/12/21 00:35:27;;;;;;;43.10;17.00;;;;;;;-2.43;95.14;101822.35;108227;1260;60553;-77
2022/12/21 00:37:56;;;;;;;41.90;18.80;;;;;;;-2.48;95.11;101821.16;108254;1268;59562;-75
2022/12/21 00:40:27;;;;;;;41.30;18.40;;;;;;;-2.54;95.74;101822.88;108165;1254;70796;-80
2022/12/21 00:42:57;;;;;;;39.60;17.60;;;;;;;-2.57;96.89;101822.35;108396;1257;70206;-77
2022/12/21 00:45:26;;;;;;;36.90;16.70;;;;;;;-2.57;96.44;101819.63;108274;1256;67602;-76
2022/12/21 00:47:55;;;;;;;46.90;18.40;;;;;;;-2.57;98.29;101813.48;108171;1268;71797;-79
2022/12/21 00:50:24;;;;;;;41.90;18.10;;;;;;;-2.49;100.00;101811.61;108161;1257;59630;-79
2022/12/21 00:52:54;;;;;;;40.40;18.00;;;;;;;-2.41;100.00;101810.05;108185;1269;60792;-78
2022/12/21 00:55:23;;;;;;;39.90;17.90;;;;;;;-2.40;99.62;101807.49;108279;1268;70700;-78
2022/12/21 00:57:52;;;;;;;39.70;17.80;;;;;;;-2.41;99.03;101804.09;108322;1259;69174;-79
2022/12/21 01:00:21;;;;;;;40.10;17.20;;;;;;;-2.46;97.92;101797.09;108212;1264;67407;-79
2022/12/21 01:02:51;;;;;;;40.50;16.90;;;;;;;-2.44;99.49;101792.16;108153;1252;73122;-77
2022/12/21 01:05:20;;;;;;;38.90;18.20;;;;;;;-2.46;98.26;101788.91;108270;1255;60038;-79
2022/12/21 01:07:49;;;;;;;44.70;18.10;;;;;;;-2.45;99.56;101783.45;108150;1261;60132;-80
2022/12/21 01:10:18;;;;;;;40.60;17.00;;;;;;;-2.45;99.35;101779.52;108230;1264;72848;-78
2022/12/21 01:12:48;;;;;;;39.40;17.20;;;;;;;-2.46;98.95;101776.29;108318;1259;72144;-77
2022/12/21 01:15:18;;;;;;;37.10;17.00;;;;;;;-2.46;98.21;101779.36;108251;1254;69362;-77
2022/12/21 01:17:47;;;;;;;36.90;16.90;;;;;;;-2.48;96.85;101781.92;108269;1254;73856;-78
2022/12/21 01:20:17;;;;;;;34.30;16.00;;;;;;;-2.43;96.84;101782.60;108241;1261;59714;-78
2022/12/21 01:22:46;;;;;;;35.20;15.10;;;;;;;-2.46;96.10;101783.97;108178;1261;59612;-78
2022/12/21 01:25:15;;;;;;;40.50;16.40;;;;;;;-2.47;95.52;101784.99;108181;1268;71533;-79
2022/12/21 01:27:46;;;;;;;32.50;15.80;;;;;;;-2.48;96.23;101783.12;108413;1255;70131;-77
2022/12/21 01:30:16;;;;;;;38.80;16.30;;;;;;;-2.44;96.86;101785.48;108277;1267;68966;-77
2022/12/21 01:32:45;;;;;;;35.00;15.90;;;;;;;-2.35;98.25;101780.88;108170;1264;71964;-78
2022/12/21 01:35:14;;;;;;;37.70;15.60;;;;;;;-2.37;95.86;101776.61;108278;1260;59630;-77
2022/12/21 01:37:43;;;;;;;39.40;15.90;;;;;;;-2.40;96.52;101767.41;108269;1268;59726;-78
2022/12/21 01:40:13;;;;;;;36.80;14.80;;;;;;;-2.41;95.24;101766.89;108216;1264;73395;-77
2022/12/21 01:42:41;;;;;;;42.20;16.00;;;;;;;-2.40;94.66;101755.64;108177;1267;72485;-78
2022/12/21 01:45:30;;;;;;;41.10;17.90;;;;;;;-2.35;96.80;101751.88;108080;1263;68410;-77
2022/12/21 01:48:05;;;;;;;33.00;15.70;;;;;;;-2.30;96.30;101749.48;108235;1260;71152;-77
2022/12/21 01:50:49;;;;;;;34.50;15.10;;;;;;;-2.26;95.03;101749.45;108142;1252;60223;-77
2022/12/21 01:53:25;;;;;;;35.90;15.90;;;;;;;-2.18;96.53;101746.02;108119;1258;61290;-75
2022/12/21 01:55:57;;;;;;;35.80;16.50;;;;;;;-2.10;96.42;101741.22;108076;1268;70926;-75
2022/12/21 01:58:28;;;;;;;34.20;16.00;;;;;;;-2.09;95.13;101737.27;108150;1262;70246;-76
2022/12/21 02:02:06;;;;;;;35.60;15.60;;;;;;;-2.05;95.04;101727.53;108129;1260;69446;-77
2022/12/21 02:04:35;;;;;;;38.80;15.70;;;;;;;-2.05;94.85;101716.44;108186;1258;71724;-77
2022/12/21 02:07:04;;;;;;;37.60;16.20;;;;;;;-2.10;93.64;101713.91;108060;1268;60368;-77
2022/12/21 02:09:36;;;;;;;31.60;14.80;;;;;;;-2.12;94.53;101710.83;108234;1261;59460;-76
2022/12/21 02:12:09;;;;;;;34.40;15.60;;;;;;;-2.07;94.79;101705.02;108245;1260;72655;-76
2022/12/21 02:14:41;;;;;;;35.30;16.20;;;;;;;-2.07;94.22;101702.63;108357;1250;72406;-75
2022/12/21 02:17:30;;;;;;;35.80;15.90;;;;;;;-2.10;93.87;101702.63;108115;1260;70358;-76
2022/12/21 02:20:25;;;;;;;36.20;16.30;;;;;;;-2.08;94.55;101705.70;108219;1261;71739;-75
2022/12/21 02:23:24;;;;;;;34.80;15.30;;;;;;;-2.03;94.52;101706.70;107918;1264;60381;-73
2022/12/21 02:26:24;;;;;;;33.90;15.90;;;;;;;-1.96;93.70;101701.03;108163;1264;59613;-77
2022/12/21 02:29:50;;;;;;;35.20;16.00;;;;;;;-1.92;94.11;101697.59;108227;1264;71726;-77
2022/12/21 02:32:56;;;;;;;37.60;15.40;;;;;;;-1.94;93.34;101702.56;108229;1255;71246;-76
2022/12/21 02:35:43;;;;;;;35.60;15.60;;;;;;;-1.86;94.43;101694.16;108162;1260;67708;-76
2022/12/21 02:38:50;;;;;;;34.00;15.50;;;;;;;-1.87;94.06;101691.95;108135;1260;71038;-76
2022/12/21 02:41:59;;;;;;;35.90;15.80;;;;;;;-1.80;94.93;101687.80;108129;1259;62097;-73
2022/12/21 02:44:55;;;;;;;41.10;17.10;;;;;;;-1.83;92.92;101686.29;108185;1261;60677;-75
2022/12/21 02:47:53;;;;;;;37.70;16.10;;;;;;;-1.83;93.43;101691.91;108145;1264;73423;-74
2022/12/21 02:50:32;;;;;;;34.60;14.10;;;;;;;-1.89;91.46;101695.87;108228;1259;72498;-74
2022/12/21 02:53:18;;;;;;;36.30;14.10;;;;;;;-1.89;91.59;101699.80;108135;1261;70310;-74
2022/12/21 02:55:47;;;;;;;40.40;15.50;;;;;;;-1.93;91.36;101696.41;108096;1258;74929;-76
2022/12/21 02:58:20;;;;;;;37.70;15.50;;;;;;;-1.98;93.75;101694.05;108073;1264;60613;-75
2022/12/21 03:00:52;;;;;;;42.00;16.60;;;;;;;-2.00;93.44;101699.86;108231;1264;60823;-73
2022/12/21 03:04:00;;;;;;;35.40;15.40;;;;;;;-2.00;92.79;101702.08;108158;1258;72465;-74
2022/12/21 03:07:01;;;;;;;34.70;15.70;;;;;;;-2.01;92.59;101705.84;108288;1265;70087;-74
2022/12/21 03:10:02;;;;;;;35.10;15.30;;;;;;;-1.99;93.93;101706.17;108098;1254;69359;-73
2022/12/21 03:12:56;;;;;;;37.30;15.90;;;;;;;-1.98;93.87;101702.58;108133;1261;72250;-74
2022/12/21 03:15:36;;;;;;;35.30;15.50;;;;;;;-1.92;95.53;101701.88;108186;1260;59837;-74
2022/12/21 03:18:26;;;;;;;34.40;16.00;;;;;;;-1.90;93.96;101704.59;108200;1262;60187;-75
2022/12/21 03:21:12;;;;;;;35.00;16.00;;;;;;;-1.90;93.27;101704.08;108203;1263;73884;-75
2022/12/21 03:23:49;;;;;;;37.90;16.50;;;;;;;-1.90;93.87;101708.35;108374;1259;71140;-74
2022/12/21 03:26:26;;;;;;;39.70;16.50;;;;;;;-1.92;93.42;101713.65;108196;1256;70381;-77
2022/12/21 03:28:58;;;;;;;39.80;16.30;;;;;;;-1.93;93.43;101710.07;108220;1252;74161;-75
2022/12/21 03:31:38;;;;;;;36.30;16.00;;;;;;;-1.91;95.26;101699.98;108211;1261;61050;-75
2022/12/21 03:34:27;;;;;;;38.40;16.00;;;;;;;-1.93;93.29;101689.58;108314;1260;59454;-75
2022/12/21 03:37:01;;;;;;;38.40;15.80;;;;;;;-2.03;93.90;101681.95;108243;1254;73533;-75
2022/12/21 03:39:32;;;;;;;34.80;14.80;;;;;;;-2.04;94.01;101678.55;108350;1258;72685;-77
2022/12/21 03:42:20;;;;;;;34.80;14.90;;;;;;;-2.08;92.18;101671.23;108247;1255;70020;-76
2022/12/21 03:45:08;;;;;;;37.50;16.00;;;;;;;-2.08;93.81;101663.70;108210;1264;71403;-76
2022/12/21 03:47:56;;;;;;;34.80;15.90;;;;;;;-2.04;94.70;101666.42;108027;1263;60422;-74
2022/12/21 03:50:32;;;;;;;37.10;14.70;;;;;;;-2.14;93.44;101672.45;108148;1258;59201;-75
2022/12/21 03:53:17;;;;;;;39.60;15.60;;;;;;;-2.20;92.32;101664.96;108120;1262;71000;-75
2022/12/21 03:55:49;;;;;;;35.00;14.90;;;;;;;-2.20;93.89;101665.48;108238;1262;70152;-72
2022/12/21 03:58:18;;;;;;;38.80;16.10;;;;;;;-2.25;94.81;101657.81;108318;1261;68636;-73
2022/12/21 04:01:02;;;;;;;34.70;15.70;;;;;;;-2.26;94.30;101656.46;108132;1262;72128;-72
2022/12/21 04:03:39;;;;;;;35.00;15.60;;;;;;;-2.24;95.52;101663.27;108126;1260;61228;-78
2022/12/21 04:06:17;;;;;;;30.90;14.50;;;;;;;-2.24;95.77;101659.36;108175;1258;60289;-76
2022/12/21 04:08:48;;;;;;;34.40;15.40;;;;;;;-2.30;95.31;101651.35;108124;1261;73808;-72
2022/12/21 04:14:04;;;;;;;36.10;16.40;;;;;;;-2.32;95.93;101645.05;108169;1260;68582;-70
2022/12/21 04:16:33;;;;;;;36.60;15.50;;;;;;;-2.42;95.12;101636.89;108098;1262;71841;-72
2022/12/21 04:21:49;;;;;;;37.70;15.90;;;;;;;-2.38;95.55;101636.72;108474;1254;59526;-75
2022/12/21 04:30:49;;;;;;;39.30;16.80;;;;;;;-2.27;96.39;101655.61;108220;1261;68589;-77
2022/12/21 04:33:21;;;;;;;37.10;17.60;;;;;;;-2.33;94.58;101658.52;108134;1255;71790;-75
2022/12/21 04:38:41;;;;;;;36.20;17.00;;;;;;;-2.25;95.43;101651.16;108226;1259;59627;-76
2022/12/21 04:41:11;;;;;;;36.30;17.40;;;;;;;-2.26;94.38;101652.54;108146;1258;73420;-75
2022/12/21 04:43:41;;;;;;;46.80;20.00;;;;;;;-2.20;96.74;101650.62;108000;1263;72804;-76
2022/12/21 04:46:13;;;;;;;73.80;29.70;;;;;;;-2.13;95.68;101663.73;108062;1263;70738;-77
2022/12/21 04:48:44;;;;;;;57.00;24.40;;;;;;;-2.15;95.01;101662.55;108034;1254;73418;-76
2022/12/21 04:51:25;;;;;;;52.30;21.50;;;;;;;-2.21;93.67;101650.28;108068;1261;60109;-76
2022/12/21 04:53:53;;;;;;;42.90;19.60;;;;;;;-2.13;95.70;101634.38;108153;1262;61655;-76
2022/12/21 04:56:22;;;;;;;44.30;19.30;;;;;;;-2.18;94.42;101641.05;108162;1261;72489;-76
2022/12/21 04:58:51;;;;;;;43.80;19.20;;;;;;;-2.14;94.33;101648.38;108220;1259;69565;-76
2022/12/21 05:01:21;;;;;;;38.40;16.90;;;;;;;-2.12;93.60;101642.90;108137;1260;67801;-77
2022/12/21 05:03:51;;;;;;;41.10;17.00;;;;;;;-2.13;94.03;101643.59;107975;1262;71019;-78
2022/12/21 05:06:20;;;;;;;60.00;25.20;;;;;;;-2.03;95.56;101637.89;108088;1260;61129;-75
2022/12/21 05:08:48;;;;;;;39.40;18.20;;;;;;;-1.98;94.51;101630.02;108147;1261;60947;-75
2022/12/21 05:11:23;;;;;;;45.50;16.80;;;;;;;-1.88;93.56;101630.65;108046;1260;70744;-71
2022/12/21 05:13:53;;;;;;;35.20;15.90;;;;;;;-1.89;91.97;101633.38;108172;1258;69540;-71
2022/12/21 05:16:24;;;;;;;37.50;16.80;;;;;;;-1.88;91.43;101633.38;108172;1260;67746;-73
2022/12/21 05:18:53;;;;;;;40.40;17.40;;;;;;;-1.88;92.56;101623.64;108333;1252;73461;-75
2022/12/21 05:21:23;;;;;;;41.90;17.50;;;;;;;-1.83;92.99;101622.76;108230;1261;61738;-75
2022/12/21 05:23:51;;;;;;;40.00;17.70;;;;;;;-1.79;92.31;101619.14;108084;1267;60178;-77
2022/12/21 05:26:20;;;;;;;41.70;18.60;;;;;;;-1.76;91.21;101621.17;108038;1257;71970;-77
2022/12/21 05:28:49;;;;;;;39.60;16.90;;;;;;;-1.78;91.16;101622.90;108228;1263;71467;-75
2022/12/21 05:31:19;;;;;;;38.10;17.90;;;;;;;-1.77;91.77;101612.64;108083;1254;67753;-77
2022/12/21 05:33:48;;;;;;;45.20;19.60;;;;;;;-1.74;92.66;101606.46;108033;1260;73757;-77
2022/12/21 05:36:16;;;;;;;41.70;17.70;;;;;;;-1.69;92.08;101608.99;107983;1251;61546;-75
2022/12/21 05:38:45;;;;;;;41.30;19.40;;;;;;;-1.68;91.62;101615.65;107949;1261;60201;-74
2022/12/21 05:41:17;;;;;;;40.60;17.70;;;;;;;-1.61;90.85;101608.27;107918;1258;72313;-75
2022/12/21 05:43:46;;;;;;;46.40;19.00;;;;;;;-1.64;89.98;101610.50;108177;1255;72107;-76
2022/12/21 05:46:15;;;;;;;43.60;17.40;;;;;;;-1.63;91.87;101614.08;108067;1264;70712;-75
2022/12/21 05:48:54;;;;;;;38.30;17.40;;;;;;;-1.62;91.19;101615.09;108144;1257;74093;-79
2022/12/21 05:51:23;;;;;;;36.90;15.70;;;;;;;-1.61;91.69;101613.39;108084;1269;60288;-75
2022/12/21 05:53:53;;;;;;;39.40;17.00;;;;;;;-1.66;90.60;101612.05;108069;1257;59469;-76
2022/12/21 05:56:23;;;;;;;40.30;18.00;;;;;;;-1.68;90.16;101613.25;108078;1256;71521;-78
2022/12/21 05:58:51;;;;;;;32.30;16.00;;;;;;;-1.65;89.95;101620.59;108071;1262;71383;-74
2022/12/21 06:01:20;;;;;;;33.90;16.20;;;;;;;-1.65;89.76;101622.28;107991;1262;67851;-74
2022/12/21 06:03:49;;;;;;;40.30;16.40;;;;;;;-1.55;91.53;101627.69;108209;1262;71071;-76
2022/12/21 06:06:18;;;;;;;45.40;19.10;;;;;;;-1.46;91.37;101627.95;108199;1254;58766;-73
2022/12/21 06:08:47;;;;;;;39.70;17.20;;;;;;;-1.43;89.81;101630.15;108308;1250;59580;-75
2022/12/21 06:11:20;;;;;;;37.70;17.00;;;;;;;-1.44;88.90;101641.61;108270;1254;72285;-74
2022/12/21 06:13:50;;;;;;;42.50;17.50;;;;;;;-1.40;89.83;101641.07;108409;1255;72079;-74
2022/12/21 06:16:25;;;;;;;40.70;17.80;;;;;;;-1.40;89.03;101643.80;108044;1267;68931;-76
2022/12/21 06:18:55;;;;;;;39.70;17.40;;;;;;;-1.40;88.59;101652.33;108079;1250;73013;-74
2022/12/21 06:21:24;;;;;;;47.20;19.40;;;;;;;-1.47;89.41;101649.48;108078;1261;62103;-73
2022/12/21 06:23:53;;;;;;;41.80;17.70;;;;;;;-1.43;90.20;101644.16;108252;1260;59262;-76
2022/12/21 06:26:22;;;;;;;41.30;18.40;;;;;;;-1.35;90.12;101651.45;108141;1258;73743;-78
2022/12/21 06:28:53;;;;;;;40.20;18.50;;;;;;;-1.38;89.18;101653.86;108341;1255;71604;-77
2022/12/21 06:31:23;;;;;;;45.60;19.60;;;;;;;-1.40;88.80;101649.44;108137;1264;68845;-79
2022/12/21 06:33:54;;;;;;;40.90;18.60;;;;;;;-1.41;88.84;101647.05;108046;1260;71580;-79
2022/12/21 06:36:23;;;;;;;42.90;19.70;;;;;;;-1.38;90.00;101642.76;108156;1256;59121;-78
2022/12/21 06:38:52;;;;;;;38.60;17.70;;;;;;;-1.39;88.90;101638.83;108222;1264;59197;-78
2022/12/21 06:41:21;;;;;;;46.80;19.90;;;;;;;-1.41;88.96;101653.71;108142;1253;73425;-77
2022/12/21 06:43:50;;;;;;;40.80;18.50;;;;;;;-1.40;89.47;101657.64;108354;1259;72567;-79
2022/12/21 06:46:20;;;;;;;47.40;20.10;;;;;;;-1.33;89.02;101657.23;108206;1256;70887;-78
2022/12/21 06:48:49;;;;;;;44.10;18.70;;;;;;;-1.34;89.12;101660.66;108165;1253;72093;-81
2022/12/21 06:51:21;;;;;;;43.60;19.20;;;;;;;-1.32;89.84;101662.54;108171;1267;60388;-77
2022/12/21 06:53:52;;;;;;;42.40;18.10;;;;;;;-1.20;91.53;101661.23;108122;1260;59882;-77
2022/12/21 06:56:29;;;;;;;42.40;19.60;;;;;;;-1.15;89.71;101658.95;108096;1257;74024;-81
2022/12/21 06:58:58;;;;;;;45.40;18.30;;;;;;;-1.03;90.96;101649.11;108170;1258;69413;-79
2022/12/21 07:01:33;;;;;;;38.30;19.00;;;;;;;-0.95;90.06;101647.84;108209;1260;67868;-76
2022/12/21 07:04:02;;;;;;;48.50;20.80;;;;;;;-0.94;88.47;101647.14;108180;1258;70422;-78
2022/12/21 07:06:32;;;;;;;47.20;20.50;;;;;;;-0.98;89.20;101646.34;107913;1268;61913;-79
2022/12/21 07:09:01;;;;;;;42.70;19.40;;;;;;;-0.95;89.50;101649.71;108125;1266;61248;-79
2022/12/21 07:11:30;;;;;;;45.30;19.60;;;;;;;-0.96;88.35;101645.10;107922;1260;74154;-77
2022/12/21 07:14:00;;;;;;;43.20;18.80;;;;;;;-1.05;87.89;101642.98;108294;1255;69996;-78
2022/12/21 07:16:29;;;;;;;43.10;20.20;;;;;;;-1.08;88.19;101637.70;108124;1260;69693;-78
2022/12/21 07:18:58;;;;;;;45.20;20.70;;;;;;;-1.06;88.90;101632.20;108111;1257;74113;-78
2022/12/21 07:21:27;;;;;;;48.40;19.30;;;;;;;-0.98;89.56;101630.77;108162;1267;62310;-80
2022/12/21 07:23:55;;;;;;;50.80;21.10;;;;;;;-0.90;89.15;101630.69;108137;1256;60475;-79
2022/12/21 07:26:24;;;;;;;43.60;21.00;;;;;;;-0.79;88.56;101625.44;108171;1268;71090;-77
2022/12/21 07:28:55;;;;;;;48.10;20.80;;;;;;;-0.74;88.52;101624.88;108141;1266;70153;-76
2022/12/21 07:31:27;;;;;;;45.70;20.50;;;;;;;-0.81;87.50;101621.86;107897;1263;69566;-79
2022/12/21 07:33:56;;;;;;;48.80;24.30;;;;;;;-0.71;87.16;101622.27;108127;1257;71165;-77
2022/12/21 07:36:25;;;;;;;47.30;22.00;;;;;;;-0.63;87.95;101613.96;108162;1258;59121;-76
2022/12/21 07:38:54;;;;;;;51.90;21.60;;;;;;;-0.51;87.52;101610.23;108148;1257;60344;-82
2022/12/21 07:41:23;;;;;;;49.80;22.10;;;;;;;-0.48;86.82;101599.23;108161;1253;72256;-78
2022/12/21 07:43:52;;;;;;;45.30;21.20;;;;;;;-0.40;86.06;101595.21;108150;1258;69434;-81
2022/12/21 07:46:39;;;;;;;54.80;22.30;;;;;;;-0.32;86.18;101597.33;108198;1258;68826;-79
2022/12/21 07:49:10;;;;;;;47.70;22.50;;;;;;;-0.25;86.96;101598.95;108097;1260;73818;-76
2022/12/21 07:51:40;;;;;;;51.50;22.90;;;;;;;-0.11;86.32;101598.23;108196;1257;59201;-76
2022/12/21 07:54:09;;;;;;;46.00;21.30;;;;;;;-0.10;84.16;101598.92;108115;1257;60975;-76
2022/12/21 07:56:38;;;;;;;47.00;21.60;;;;;;;0.01;84.72;101598.23;108148;1256;74281;-78
2022/12/21 07:59:06;;;;;;;46.00;21.40;;;;;;;0.08;84.90;101597.45;108296;1255;71901;-77
2022/12/21 08:01:35;;;;;;;49.60;22.40;;;;;;;0.06;82.85;101603.29;108183;1260;67104;-79
2022/12/21 08:04:06;;;;;;;49.90;22.50;;;;;;;0.13;83.24;101596.00;108085;1260;71090;-81
2022/12/21 08:06:36;;;;;;;45.50;22.80;;;;;;;0.10;82.35;101592.29;108083;1267;60370;-80
2022/12/21 08:09:13;;;;;;;54.40;26.00;;;;;;;0.03;83.16;101592.04;108159;1261;60640;-79
2022/12/21 08:11:41;;;;;;;50.60;22.70;;;;;;;0.23;82.60;101592.25;108170;1259;73878;-82
2022/12/21 08:14:11;;;;;;;49.30;24.00;;;;;;;0.18;82.19;101587.17;108352;1250;70081;-79
2022/12/21 08:16:40;;;;;;;53.20;24.90;;;;;;;0.29;81.95;101583.60;108200;1266;70755;-79
2022/12/21 08:19:09;;;;;;;49.50;23.10;;;;;;;0.35;81.85;101583.16;108172;1268;72838;-80
2022/12/21 08:21:37;;;;;;;42.80;21.60;;;;;;;0.32;80.59;101588.85;108141;1255;61850;-78
2022/12/21 08:24:07;;;;;;;48.50;23.50;;;;;;;0.46;81.43;101580.08;108144;1260;61685;-78
2022/12/21 08:26:35;;;;;;;52.90;22.10;;;;;;;0.43;81.33;101576.34;107959;1267;75355;-80
2022/12/21 08:29:05;;;;;;;53.40;22.50;;;;;;;0.41;80.70;101567.46;108201;1266;70972;-77
2022/12/21 08:31:35;;;;;;;46.20;20.70;;;;;;;0.34;80.80;101564.31;107978;1255;69686;-79
2022/12/21 08:34:04;;;;;;;49.10;21.10;;;;;;;0.39;80.25;101552.60;108011;1261;71494;-79
2022/12/21 08:36:33;;;;;;;43.70;20.70;;;;;;;0.43;81.46;101543.43;107983;1266;61686;-76
2022/12/21 08:39:02;;;;;;;45.00;21.50;;;;;;;0.55;80.83;101541.52;107963;1267;60590;-77
2022/12/21 08:41:38;;;;;;;41.10;18.80;;;;;;;0.46;80.45;101539.45;107966;1256;74787;-78
2022/12/21 08:44:07;;;;;;;40.30;19.70;;;;;;;0.60;79.98;101543.83;108051;1255;71144;-79
2022/12/21 08:46:36;;;;;;;41.20;20.10;;;;;;;0.70;79.69;101536.27;107863;1260;68995;-77
2022/12/21 08:49:05;;;;;;;41.20;19.10;;;;;;;0.81;79.65;101544.30;108017;1264;72876;-82
2022/12/21 08:51:34;;;;;;;43.80;19.80;;;;;;;0.88;79.23;101548.11;107940;1260;59195;-78
2022/12/21 08:54:07;;;;;;;48.30;21.00;;;;;;;0.75;79.28;101552.29;107927;1257;60035;-80
2022/12/21 08:56:36;;;;;;;52.70;20.90;;;;;;;0.64;79.73;101549.42;107988;1260;71557;-79
2022/12/21 08:59:08;;;;;;;45.60;19.30;;;;;;;0.79;79.46;101544.51;108156;1251;70286;-79
2022/12/21 09:01:37;;;;;;;48.70;21.50;;;;;;;0.88;78.72;101542.47;108021;1253;70401;-80
2022/12/21 09:04:06;;;;;;;48.00;21.50;;;;;;;0.92;79.19;101538.45;108005;1268;73115;-77
2022/12/21 09:06:35;;;;;;;50.50;21.80;;;;;;;0.90;79.54;101532.63;108003;1266;60284;-79
2022/12/21 09:09:04;;;;;;;45.20;21.60;;;;;;;0.88;79.46;101526.69;108042;1261;61824;-79
2022/12/21 09:11:32;;;;;;;44.40;21.30;;;;;;;0.99;79.54;101518.39;107954;1260;75203;-78
2022/12/21 09:14:14;;;;;;;44.70;20.90;;;;;;;1.09;79.57;101514.94;108192;1251;71499;-81
2022/12/21 09:16:43;;;;;;;37.30;18.20;;;;;;;1.23;78.21;101511.91;108038;1256;71373;-79
2022/12/21 09:19:12;;;;;;;43.70;19.70;;;;;;;1.23;77.68;101510.34;108028;1251;73597;-78
2022/12/21 09:21:40;;;;;;;46.20;21.40;;;;;;;1.30;78.01;101507.98;107941;1267;60909;-79
2022/12/21 09:24:09;;;;;;;43.90;20.00;;;;;;;1.20;77.49;101511.44;108026;1267;59428;-78
2022/12/21 09:26:38;;;;;;;45.30;21.10;;;;;;;1.10;78.00;101519.73;108048;1259;72347;-80
2022/12/21 09:29:10;;;;;;;44.70;21.40;;;;;;;1.16;79.02;101513.95;108222;1260;72066;-79
2022/12/21 09:31:39;;;;;;;44.90;20.00;;;;;;;1.28;78.29;101509.91;108065;1257;70036;-80
2022/12/21 09:34:07;;;;;;;42.10;20.90;;;;;;;1.36;78.02;101508.38;107867;1258;74277;-78
2022/12/21 09:36:36;;;;;;;45.60;22.80;;;;;;;1.40;78.24;101497.97;107998;1260;61213;-83
2022/12/21 09:39:25;;;;;;;43.50;21.30;;;;;;;1.44;77.48;101487.92;108106;1260;58546;-78
2022/12/21 09:41:57;;;;;;;47.40;21.80;;;;;;;1.51;76.63;101488.64;108138;1256;74256;-78
2022/12/21 09:44:59;;;;;;;52.90;22.50;;;;;;;1.56;76.71;101479.95;108238;1261;72451;-80
2022/12/21 09:48:00;;;;;;;49.70;23.10;;;;;;;1.69;76.70;101471.75;108181;1260;69149;-80
2022/12/21 09:50:44;;;;;;;54.90;23.80;;;;;;;1.87;77.44;101469.77;107967;1250;74066;-79
2022/12/21 09:53:28;;;;;;;46.90;23.00;;;;;;;1.94;76.14;101469.77;108015;1257;60615;-79
2022/12/21 09:55:59;;;;;;;48.30;23.30;;;;;;;2.07;74.97;101464.29;108084;1257;61159;-80
2022/12/21 09:58:42;;;;;;;50.90;22.60;;;;;;;2.32;74.22;101462.80;108157;1260;72840;-78
2022/12/21 10:01:42;;;;;;;50.10;22.80;;;;;;;2.21;74.35;101457.23;107261;1251;1387933;-79
2022/12/21 10:04:34;;;;;;;56.70;27.70;;;;;;;2.39;73.55;101454.35;108211;1255;69349;-79
2022/12/21 10:07:58;;;;;;;49.70;22.50;;;;;;;2.38;73.10;101452.33;108202;1251;62824;-78
2022/12/21 10:10:30;;;;;;;;;;;;;;;2.49;72.59;101451.52;108170;1266;60324;-78
2022/12/21 10:13:28;;;;;;;47.40;23.20;;;;;;;2.55;72.94;101446.37;108085;1260;60107;-79
2022/12/21 10:16:08;;;;;;;48.90;25.10;;;;;;;2.64;72.49;101435.77;107899;1263;74843;-79
2022/12/21 10:18:47;;;;;;;45.10;23.50;;;;;;;2.73;72.48;101432.29;108223;1261;61338;-81
2022/12/21 10:22:07;;;;;;;54.70;25.30;;;;;;;2.70;72.04;101427.03;108149;1257;69706;-80
2022/12/21 10:24:55;;;;;;;49.50;24.40;;;;;;;2.81;71.72;101417.77;107895;1266;73516;-82
2022/12/21 10:27:29;;;;;;;51.50;25.80;;;;;;;2.89;71.74;101409.27;107966;1260;59676;-76
2022/12/21 10:29:59;;;;;;;49.00;24.10;;;;;;;2.82;71.63;101399.85;108182;1252;59678;-80
2022/12/21 10:32:34;;;;;;;44.80;22.30;;;;;;;2.91;71.35;101397.33;107944;1257;72882;-78
2022/12/21 10:35:21;;;;;;;42.00;22.80;;;;;;;2.92;71.66;101399.02;108307;1255;72096;-82
2022/12/21 10:37:54;;;;;;;48.10;23.60;;;;;;;2.97;72.21;101398.02;108109;1261;59252;-82
2022/12/21 10:40:27;;;;;;;49.40;23.60;;;;;;;3.04;71.76;101400.23;108085;1266;71139;-77
2022/12/21 10:42:57;;;;;;;;;;;;;;;3.05;72.42;101398.84;108106;1266;58157;-81
2022/12/21 10:45:26;;;;;;;49.60;24.40;;;;;;;3.10;72.23;101406.59;108151;1256;61041;-80
2022/12/21 10:47:55;;;;;;;55.40;25.30;;;;;;;3.11;71.94;101407.94;107995;1257;74912;-80
2022/12/21 10:50:47;;;;;;;46.00;22.80;;;;;;;3.02;71.97;101407.52;108305;1255;72088;-79
2022/12/21 10:53:27;;;;;;;47.00;24.00;;;;;;;3.01;71.78;101411.00;108120;1256;59003;-81
2022/12/21 10:56:00;;;;;;;43.60;22.60;;;;;;;2.84;72.49;101406.15;108125;1257;63066;-82
2022/12/21 10:58:35;;;;;;;50.80;24.90;;;;;;;2.77;72.46;101396.55;108128;1251;58276;-81
2022/12/21 11:01:05;;;;;;;51.90;23.30;;;;;;;2.82;74.75;101394.52;108038;1259;60439;-80
2022/12/21 11:03:39;;;;;;;47.70;23.00;;;;;;;2.89;72.86;101395.52;108090;1257;74259;-78
2022/12/21 11:06:20;;;;;;;49.10;23.10;;;;;;;2.71;73.46;101393.80;108307;1252;69991;-78
2022/12/21 11:08:51;;;;;;;44.70;23.50;;;;;;;2.77;73.39;101395.20;108229;1250;69053;-79
2022/12/21 11:11:36;;;;;;;47.00;23.70;;;;;;;2.87;73.31;101392.98;108109;1254;71854;-80
2022/12/21 11:14:23;;;;;;;47.80;23.80;;;;;;;2.95;72.81;101383.13;108120;1258;60440;-82
2022/12/21 11:16:58;;;;;;;51.30;23.70;;;;;;;3.00;73.22;101383.48;108225;1258;61599;-80
2022/12/21 11:19:34;;;;;;;45.50;23.40;;;;;;;3.05;73.48;101383.52;108234;1255;63269;-80
2022/12/21 11:22:07;;;;;;;49.50;23.90;;;;;;;3.08;73.21;101367.59;108359;1252;61333;-81
2022/12/21 11:24:59;;;;;;;49.20;23.90;;;;;;;3.06;73.95;101364.53;108204;1254;68417;-78
2022/12/21 11:27:33;;;;;;;49.00;24.80;;;;;;;3.08;72.55;101374.81;108213;1260;73994;-77
2022/12/21 11:30:16;;;;;;;46.40;23.10;;;;;;;2.99;73.10;101374.39;108157;1256;58271;-79
2022/12/21 11:32:48;;;;;;;53.70;24.00;;;;;;;3.17;72.39;101380.05;108182;1253;58106;-78
2022/12/21 11:35:29;;;;;;;47.50;23.70;;;;;;;3.18;72.25;101386.03;108197;1259;71646;-79
2022/12/21 11:38:24;;;;;;;52.70;25.10;;;;;;;3.31;72.80;101375.98;108295;1252;71886;-82
2022/12/21 11:40:59;;;;;;;54.10;25.40;;;;;;;3.36;72.30;101357.40;108136;1252;69686;-79
2022/12/21 11:43:28;;;;;;;49.20;24.10;;;;;;;3.32;71.92;101327.06;108162;1255;74513;-77
2022/12/21 11:46:15;;;;;;;49.00;25.90;;;;;;;3.33;72.68;101312.04;108241;1251;60283;-81
2022/12/21 11:49:44;;;;;;;48.40;25.30;;;;;;;3.27;72.14;101301.92;108254;1254;61015;-81
2022/12/21 11:52:36;;;;;;;48.80;24.10;;;;;;;3.22;72.32;101315.34;108104;1255;74049;-79
2022/12/21 11:55:25;;;;;;;51.50;25.30;;;;;;;3.31;71.86;101323.29;108240;1252;71875;-77